Amay, Belgium
Current Conditions -  °F | °C
As of 6:20 PM on Friday 24 Oct 2014 (Local Time) from EBLG Reporting Station
Few Clouds Few Clouds  
Wind Chill: 54°   Ceiling: Unl
Heat Index: 54°   Visibility: 6mi
Dew Point: 46°   Wind: 10mph
Humidity: 77%   Direction: 180°S
Pressure: 30.06"   Gusts: NA
Location:  50.55°N, 5.31°E
Report Text: EBLG 241620Z 18009KT 9999 FEW040 12/08 Q1018 NOSIG
Loading
Personal Weather Stations






























Interactive Weather Map
Tropical Storm Tracking
New forecast layout! Learn more

10-Day Weather Forecast

Advertisements
Track Severe Weather on mobile